Terminal Aerodrome Forecast
Issued by NWS

Home | Current Version | Previous Version | Text Only | Print | Product List | Glossary On
Versions: 1 2 3 4 5 6 7 8 9 10 11 12 13 14 15 16 17 18 19 20 21 22 23 24 25 26 27 28 29 30 31 32 33 34
000
FTUS44 KHGX 302340
TAFUTS
TAF
KUTS 302340Z 3100/3124 12004KT P6SM SCT045 BKN250
     FM310200 17003KT P6SM FEW025 BKN250
     FM310900 00000KT P6SM MIFG SCT015 BKN025
     FM311300 16004KT P6SM OVC015
     FM311500 16007KT P6SM SCT030 BKN080
      TEMPO 3116/3120 SHRA BKN028 OVC060
     FM312100 14011KT P6SM VCTS SCT040CB BKN150 PROB30 3121/3124
      TSRA=

USA.gov is the U.S. government's official web portal to all federal, state and local government web resources and services.